createdAt,value
2018-08-31T00:00:57.271Z,101578.76
2018-08-31T00:03:44.448Z,101576.25
2018-08-31T00:06:40.831Z,101578.50
2018-08-31T00:11:32.484Z,101577.16
2018-08-31T00:14:02.181Z,101571.47
2018-08-31T00:16:32.108Z,101573.63
2018-08-31T00:19:01.821Z,101569.37
2018-08-31T00:21:31.645Z,101569.30
2018-08-31T00:24:17.982Z,101565.45
2018-08-31T00:27:04.405Z,101563.66
2018-08-31T00:29:53.127Z,101561.47
2018-08-31T00:34:48.276Z,101564.77
2018-08-31T00:39:39.341Z,101560.20
2018-08-31T00:44:31.847Z,101547.17
2018-08-31T00:47:01.863Z,101549.92
2018-08-31T00:49:31.564Z,101555.94
2018-08-31T00:52:01.397Z,101559.16
2018-08-31T00:54:31.253Z,101554.36
2018-08-31T00:57:01.173Z,101545.79
2018-08-31T00:59:30.904Z,101551.83
2018-08-31T01:02:00.849Z,101550.91
2018-08-31T01:04:30.558Z,101548.20
2018-08-31T01:07:00.318Z,101548.30
2018-08-31T01:09:30.001Z,101541.49
2018-08-31T01:12:00.018Z,101532.06
2018-08-31T01:14:29.729Z,101534.20
2018-08-31T01:16:59.433Z,101543.59
2018-08-31T01:19:29.232Z,101536.56
2018-08-31T01:21:59.376Z,101533.12
2018-08-31T01:24:29.174Z,101533.53
2018-08-31T01:26:58.929Z,101532.61
2018-08-31T01:29:28.776Z,101533.38
2018-08-31T01:31:58.556Z,101539.38
2018-08-31T01:34:28.280Z,101543.16
2018-08-31T01:36:57.997Z,101540.09
2018-08-31T01:39:27.924Z,101542.71
2018-08-31T01:41:57.768Z,101547.39
2018-08-31T01:44:27.455Z,101543.48
2018-08-31T01:46:57.332Z,101540.38
2018-08-31T01:49:27.004Z,101546.01
2018-08-31T01:51:56.686Z,101546.88
2018-08-31T01:54:26.452Z,101543.41
2018-08-31T01:56:56.262Z,101547.31
2018-08-31T01:59:25.970Z,101551.64
2018-08-31T02:01:55.710Z,101547.76
2018-08-31T02:04:25.541Z,101548.61
2018-08-31T02:06:55.413Z,101537.42
2018-08-31T02:09:26.067Z,101540.88
2018-08-31T02:11:55.740Z,101540.23
2018-08-31T02:14:25.450Z,101541.84
2018-08-31T02:16:55.174Z,101542.46
2018-08-31T02:19:25.003Z,101542.19
2018-08-31T02:21:54.722Z,101549.33
2018-08-31T02:24:24.460Z,101555.20
2018-08-31T02:26:54.227Z,101547.95
2018-08-31T02:29:24.078Z,101545.93
2018-08-31T02:31:53.857Z,101537.40
2018-08-31T02:34:23.563Z,101542.05
2018-08-31T02:36:53.398Z,101544.38
2018-08-31T02:39:23.300Z,101536.56
2018-08-31T02:41:52.982Z,101536.23
2018-08-31T02:44:22.673Z,101538.93
2018-08-31T02:46:52.374Z,101537.77
2018-08-31T02:49:22.136Z,101539.15
2018-08-31T02:51:51.834Z,101535.71
2018-08-31T02:54:21.600Z,101536.60
2018-08-31T02:56:51.281Z,101534.98
2018-08-31T02:59:20.977Z,101533.26
2018-08-31T03:01:50.660Z,101535.06
2018-08-31T03:04:20.419Z,101532.45
2018-08-31T03:06:50.137Z,101529.91
2018-08-31T03:09:19.874Z,101529.64
2018-08-31T03:11:49.628Z,101531.20
2018-08-31T03:14:19.338Z,101530.41
2018-08-31T03:16:49.078Z,101533.12
2018-08-31T03:19:18.751Z,101526.55
2018-08-31T03:21:48.469Z,101527.80
2018-08-31T03:24:18.141Z,101527.38
2018-08-31T03:26:47.867Z,101527.38
2018-08-31T03:29:18.222Z,101530.86
2018-08-31T03:32:50.850Z,101528.72
2018-08-31T03:35:20.560Z,101528.78
2018-08-31T03:37:50.307Z,101530.99
2018-08-31T03:40:20.047Z,101533.59
2018-08-31T03:42:49.731Z,101531.33
2018-08-31T03:45:19.417Z,101532.16
2018-08-31T03:47:49.603Z,101533.19
2018-08-31T03:50:19.633Z,101530.99
2018-08-31T03:52:49.349Z,101538.83
2018-08-31T03:55:19.143Z,101540.13
2018-08-31T03:57:48.921Z,101538.02
2018-08-31T04:00:18.731Z,101540.62
2018-08-31T04:02:48.403Z,101535.73
2018-08-31T04:05:18.172Z,101541.81
2018-08-31T04:07:49.095Z,101542.64
2018-08-31T04:10:18.915Z,101539.53
2018-08-31T04:12:48.611Z,101535.63
2018-08-31T04:15:18.432Z,101533.11
2018-08-31T04:17:48.144Z,101534.77
2018-08-31T04:20:17.974Z,101535.63
2018-08-31T04:22:47.754Z,101534.77
2018-08-31T04:25:17.430Z,101537.36
2018-08-31T04:27:47.215Z,101535.61
2018-08-31T04:30:18.301Z,101536.41
2018-08-31T04:32:49.821Z,101533.27
2018-08-31T04:35:19.620Z,101536.17
2018-08-31T04:37:49.377Z,101538.27
2018-08-31T04:40:19.152Z,101532.11
2018-08-31T04:42:49.965Z,101539.38
2018-08-31T04:45:19.640Z,101539.72
2018-08-31T04:47:49.337Z,101544.42
2018-08-31T04:50:19.401Z,101536.61
2018-08-31T04:52:49.063Z,101535.60
2018-08-31T04:55:18.884Z,101540.37
2018-08-31T04:57:48.912Z,101543.27
2018-08-31T05:00:18.601Z,101539.95
2018-08-31T05:02:48.306Z,101540.50
2018-08-31T05:05:18.201Z,101538.89
2018-08-31T05:07:47.959Z,101536.73
2018-08-31T05:10:17.670Z,101538.28
2018-08-31T05:12:47.371Z,101543.30
2018-08-31T05:15:17.044Z,101540.32
2018-08-31T05:17:46.735Z,101546.16
2018-08-31T05:20:16.734Z,101548.45
2018-08-31T05:22:46.512Z,101542.92
2018-08-31T05:25:16.122Z,101552.34
2018-08-31T05:27:45.817Z,101553.31
2018-08-31T05:30:15.668Z,101551.30
2018-08-31T05:32:45.348Z,101551.03
2018-08-31T05:35:15.179Z,101551.08
2018-08-31T05:37:44.922Z,101557.28
2018-08-31T05:40:14.660Z,101552.11
2018-08-31T05:42:44.632Z,101556.18
2018-08-31T05:45:14.524Z,101560.62
2018-08-31T05:47:44.286Z,101563.28
2018-08-31T05:50:14.570Z,101566.89
2018-08-31T05:52:44.718Z,101565.24
2018-08-31T05:55:14.692Z,101568.86
2018-08-31T05:57:44.523Z,101567.80
2018-08-31T06:00:14.288Z,101574.38
2018-08-31T06:02:44.230Z,101577.55
2018-08-31T06:05:13.977Z,101580.23
2018-08-31T06:07:43.753Z,101579.98
2018-08-31T06:10:13.634Z,101584.31
2018-08-31T06:12:43.370Z,101588.41
2018-08-31T06:15:13.084Z,101587.28
2018-08-31T06:17:46.849Z,101590.89
2018-08-31T06:20:16.673Z,101590.08
2018-08-31T06:22:47.425Z,101593.02
2018-08-31T06:25:17.175Z,101594.38
2018-08-31T06:27:46.915Z,101598.31
2018-08-31T06:30:16.672Z,101603.99
2018-08-31T06:32:46.448Z,101603.20
2018-08-31T06:35:16.349Z,101605.82
2018-08-31T06:37:46.040Z,101607.48
2018-08-31T06:40:15.824Z,101607.25
2018-08-31T06:42:45.598Z,101608.03
2018-08-31T06:45:15.265Z,101615.99
2018-08-31T06:47:44.979Z,101617.25
2018-08-31T06:50:14.672Z,101614.61
2018-08-31T06:52:44.397Z,101620.87
2018-08-31T06:55:14.117Z,101621.30
2018-08-31T06:57:43.865Z,101618.69
2018-08-31T07:00:13.601Z,101623.03
2018-08-31T07:02:43.321Z,101619.23
2018-08-31T07:05:13.040Z,101620.90
2018-08-31T07:07:42.858Z,101622.77
2018-08-31T07:10:12.676Z,101619.63
2018-08-31T07:12:42.411Z,101618.88
2018-08-31T07:15:12.181Z,101623.67
2018-08-31T07:17:42.007Z,101632.98
2018-08-31T07:20:11.800Z,101619.37
2018-08-31T07:22:41.681Z,101629.78
2018-08-31T07:25:11.519Z,101629.32
2018-08-31T07:27:41.217Z,101626.33
2018-08-31T07:30:11.207Z,101631.55
2018-08-31T07:32:40.921Z,101629.44
2018-08-31T07:35:10.786Z,101621.73
2018-08-31T07:37:40.537Z,101623.48
2018-08-31T07:40:10.245Z,101629.21
2018-08-31T07:42:40.057Z,101629.26
2018-08-31T07:45:09.936Z,101634.05
2018-08-31T07:47:39.704Z,101631.44
2018-08-31T07:50:09.556Z,101628.80
2018-08-31T07:52:39.383Z,101628.88
2018-08-31T07:55:09.188Z,101626.65
2018-08-31T07:57:38.933Z,101631.05
2018-08-31T08:00:08.917Z,101635.82
2018-08-31T08:02:38.660Z,101642.33
2018-08-31T08:05:08.368Z,101640.17
2018-08-31T08:07:39.040Z,101644.56
2018-08-31T08:10:08.848Z,101649.72
2018-08-31T08:12:38.559Z,101644.22
2018-08-31T08:15:08.337Z,101642.41
2018-08-31T08:17:38.108Z,101643.43
2018-08-31T08:20:07.854Z,101643.45
2018-08-31T08:22:37.826Z,101646.67
2018-08-31T08:25:07.671Z,101656.52
2018-08-31T08:27:37.371Z,101659.89
2018-08-31T08:30:07.172Z,101651.20
2018-08-31T08:32:37.056Z,101653.56
2018-08-31T08:35:07.085Z,101652.95
2018-08-31T08:37:36.920Z,101648.89
2018-08-31T08:40:06.722Z,101652.48
2018-08-31T08:42:36.469Z,101653.72
2018-08-31T08:45:06.687Z,101651.62
2018-08-31T08:47:36.422Z,101646.16
2018-08-31T08:50:07.644Z,101651.44
2018-08-31T08:52:37.545Z,101650.37
2018-08-31T08:55:07.673Z,101651.10
2018-08-31T08:57:37.381Z,101648.55
2018-08-31T09:00:07.434Z,101642.78
2018-08-31T09:02:37.139Z,101647.40
2018-08-31T09:05:06.971Z,101649.13
2018-08-31T09:07:36.891Z,101642.68
2018-08-31T09:10:06.798Z,101641.66
2018-08-31T09:12:36.493Z,101645.07
2018-08-31T09:15:07.005Z,101640.80
2018-08-31T09:17:36.816Z,101640.30
2018-08-31T09:20:06.824Z,101641.66
2018-08-31T09:22:36.661Z,101636.36
2018-08-31T09:25:06.593Z,101647.39
2018-08-31T09:27:36.270Z,101631.89
2018-08-31T09:30:06.329Z,101638.45
2018-08-31T09:32:36.212Z,101637.84
2018-08-31T09:35:06.018Z,101632.54
2018-08-31T09:37:35.840Z,101633.27
2018-08-31T09:40:05.573Z,101632.74
2018-08-31T09:42:35.338Z,101636.34
2018-08-31T09:45:05.176Z,101634.80
2018-08-31T09:47:35.148Z,101630.36
2018-08-31T09:50:04.907Z,101636.34
2018-08-31T09:52:34.715Z,101627.92
2018-08-31T09:55:04.590Z,101624.39
2018-08-31T09:57:34.480Z,101620.13
2018-08-31T10:00:04.324Z,101618.25
2018-08-31T10:02:42.970Z,101619.17
2018-08-31T10:05:12.763Z,101619.11
2018-08-31T10:07:42.420Z,101615.77
2018-08-31T10:10:12.257Z,101620.30
2018-08-31T10:12:41.980Z,101614.64
2018-08-31T10:15:11.735Z,101614.78
2018-08-31T10:17:41.463Z,101613.25
2018-08-31T10:20:11.212Z,101611.91
2018-08-31T10:22:40.949Z,101616.98
2018-08-31T10:25:10.779Z,101615.11
2018-08-31T10:27:40.494Z,101612.89
2018-08-31T10:30:10.383Z,101610.59
2018-08-31T10:32:40.075Z,101610.08
2018-08-31T10:35:09.779Z,101610.10
2018-08-31T10:37:39.702Z,101601.64
2018-08-31T10:40:09.642Z,101606.69
2018-08-31T10:42:39.493Z,101602.41
2018-08-31T10:45:09.921Z,101607.55
2018-08-31T10:47:39.634Z,101604.05
2018-08-31T10:50:09.967Z,101604.97
2018-08-31T10:52:39.753Z,101604.73
2018-08-31T10:55:09.596Z,101605.17
2018-08-31T10:57:39.328Z,101600.97
2018-08-31T11:00:09.326Z,101597.02
2018-08-31T11:02:39.849Z,101592.46
2018-08-31T11:05:11.536Z,101600.45
2018-08-31T11:07:41.418Z,101599.61
2018-08-31T11:10:11.171Z,101601.66
2018-08-31T11:12:40.958Z,101599.49
2018-08-31T11:15:10.659Z,101598.75
2018-08-31T11:17:40.457Z,101596.28
2018-08-31T11:20:10.251Z,101596.19
2018-08-31T11:22:40.284Z,101591.61
2018-08-31T11:25:10.067Z,101591.40
2018-08-31T11:27:39.811Z,101590.31
2018-08-31T11:30:10.836Z,101584.05
2018-08-31T11:32:40.863Z,101582.78
2018-08-31T11:35:10.635Z,101576.92
2018-08-31T11:37:40.443Z,101583.91
2018-08-31T11:40:10.361Z,101578.61
2018-08-31T11:42:40.073Z,101581.09
2018-08-31T11:45:09.827Z,101579.61
2018-08-31T11:47:39.597Z,101570.20
2018-08-31T11:50:09.601Z,101575.31
2018-08-31T11:52:39.365Z,101575.05
2018-08-31T11:55:09.113Z,101576.24
2018-08-31T11:57:38.803Z,101573.78
2018-08-31T12:00:08.719Z,101561.28
2018-08-31T12:02:39.418Z,101562.37
2018-08-31T12:05:09.444Z,101565.04
2018-08-31T12:07:39.328Z,101569.37
2018-08-31T12:10:09.209Z,101561.50
2018-08-31T12:12:38.914Z,101563.58
2018-08-31T12:15:08.734Z,101562.41
2018-08-31T12:17:38.453Z,101561.52
2018-08-31T12:20:08.699Z,101557.66
2018-08-31T12:22:38.398Z,101558.13
2018-08-31T12:25:08.498Z,101555.59
2018-08-31T12:27:38.284Z,101555.50
2018-08-31T12:30:08.257Z,101549.77
2018-08-31T12:32:38.141Z,101555.53
2018-08-31T12:35:08.774Z,101554.09
2018-08-31T12:37:38.593Z,101555.99
2018-08-31T12:40:08.967Z,101556.28
2018-08-31T12:42:38.737Z,101558.64
2018-08-31T12:45:08.629Z,101553.14
2018-08-31T12:47:38.341Z,101561.39
2018-08-31T12:50:08.084Z,101563.60
2018-08-31T12:52:37.832Z,101566.23
2018-08-31T12:55:07.941Z,101559.78
2018-08-31T12:57:37.709Z,101561.61
2018-08-31T13:00:07.556Z,101561.08
2018-08-31T13:02:37.476Z,101566.74
2018-08-31T13:05:07.998Z,101558.79
2018-08-31T13:07:37.876Z,101545.60
2018-08-31T13:10:07.977Z,101545.87
2018-08-31T13:12:37.745Z,101550.63
2018-08-31T13:15:08.665Z,101552.53
2018-08-31T13:17:38.376Z,101543.63
2018-08-31T13:20:08.260Z,101542.35
2018-08-31T13:22:38.040Z,101538.92
2018-08-31T13:25:07.813Z,101543.20
2018-08-31T13:27:37.545Z,101535.22
2018-08-31T13:30:08.183Z,101536.53
2018-08-31T13:32:37.883Z,101523.84
2018-08-31T13:35:07.924Z,101523.76
2018-08-31T13:37:37.663Z,101526.71
2018-08-31T13:40:09.825Z,101524.97
2018-08-31T13:42:40.650Z,101520.02
2018-08-31T13:45:11.366Z,101524.30
2018-08-31T13:47:42.058Z,101534.47
2018-08-31T13:50:12.591Z,101530.48
2018-08-31T13:52:42.429Z,101541.22
2018-08-31T13:55:12.118Z,101534.59
2018-08-31T13:57:41.944Z,101535.88
2018-08-31T14:00:11.718Z,101539.75
2018-08-31T14:02:41.450Z,101544.20
2018-08-31T14:05:11.264Z,101536.30
2018-08-31T14:07:41.042Z,101542.32
2018-08-31T14:10:10.870Z,101547.10
2018-08-31T14:12:40.653Z,101546.09
2018-08-31T14:15:10.471Z,101552.22
2018-08-31T14:17:40.201Z,101554.19
2018-08-31T14:20:09.911Z,101555.59
2018-08-31T14:22:39.822Z,101554.23
2018-08-31T14:25:09.614Z,101557.75
2018-08-31T14:27:39.305Z,101556.05
2018-08-31T14:30:09.182Z,101554.86
2018-08-31T14:32:38.972Z,101543.63
2018-08-31T14:35:08.752Z,101552.23
2018-08-31T14:37:38.460Z,101551.05
2018-08-31T14:40:09.337Z,101556.30
2018-08-31T14:42:39.178Z,101556.96
2018-08-31T14:45:09.859Z,101550.65
2018-08-31T14:47:39.898Z,101555.36
2018-08-31T14:50:09.740Z,101559.11
2018-08-31T14:52:39.460Z,101544.17
2018-08-31T14:55:09.233Z,101549.38
2018-08-31T14:57:38.988Z,101543.13
2018-08-31T15:00:08.963Z,101540.80
2018-08-31T15:02:38.824Z,101541.48
2018-08-31T15:05:09.410Z,101547.56
2018-08-31T15:07:39.285Z,101553.23
2018-08-31T15:10:09.222Z,101549.34
2018-08-31T15:12:39.147Z,101542.27
2018-08-31T15:15:09.068Z,101558.12
2018-08-31T15:17:38.982Z,101555.87
2018-08-31T15:20:08.750Z,101547.71
2018-08-31T15:22:41.364Z,101549.36
2018-08-31T15:25:12.183Z,101545.34
2018-08-31T15:27:42.007Z,101551.95
2018-08-31T15:30:11.936Z,101549.83
2018-08-31T15:32:41.746Z,101547.91
2018-08-31T15:35:11.547Z,101550.42
2018-08-31T15:37:41.604Z,101552.08
2018-08-31T15:40:12.375Z,101545.97
2018-08-31T15:42:42.245Z,101545.06
2018-08-31T15:45:15.180Z,101548.75
2018-08-31T15:47:45.565Z,101547.96
2018-08-31T15:50:15.613Z,101543.39
2018-08-31T15:52:45.729Z,101537.45
2018-08-31T15:55:15.598Z,101544.23
2018-08-31T15:57:46.021Z,101541.36
2018-08-31T16:00:22.825Z,101546.48
2018-08-31T16:02:52.713Z,101546.52
2018-08-31T16:05:23.230Z,101548.98
2018-08-31T16:07:54.678Z,101550.93
2018-08-31T16:10:24.489Z,101542.73
2018-08-31T16:12:54.196Z,101557.50
2018-08-31T16:15:25.444Z,101553.25
2018-08-31T16:17:57.307Z,101548.76
2018-08-31T16:20:28.204Z,101554.38
2018-08-31T16:22:58.145Z,101558.34
2018-08-31T16:25:27.903Z,101560.15
2018-08-31T16:27:57.904Z,101551.40
2018-08-31T16:30:27.938Z,101552.79
2018-08-31T16:32:57.887Z,101553.77
2018-08-31T16:35:27.721Z,101556.45
2018-08-31T16:37:57.421Z,101559.59
2018-08-31T16:40:27.198Z,101557.16
2018-08-31T16:42:56.982Z,101558.20
2018-08-31T16:45:27.092Z,101555.05
2018-08-31T16:47:57.230Z,101559.61
2018-08-31T16:50:27.619Z,101559.58
2018-08-31T16:52:57.540Z,101567.55
2018-08-31T16:55:27.423Z,101560.09
2018-08-31T16:57:57.398Z,101559.05
2018-08-31T17:00:27.278Z,101561.17
2018-08-31T17:02:57.359Z,101557.19
2018-08-31T17:05:27.210Z,101564.49
2018-08-31T17:07:57.078Z,101561.49
2018-08-31T17:10:27.015Z,101567.88
2018-08-31T17:12:56.752Z,101564.73
2018-08-31T17:15:26.521Z,101573.48
2018-08-31T17:17:56.331Z,101563.52
2018-08-31T17:20:26.285Z,101572.52
2018-08-31T17:22:56.395Z,101568.97
2018-08-31T17:25:26.193Z,101570.83
2018-08-31T17:28:01.147Z,101575.38
2018-08-31T17:30:31.295Z,101568.89
2018-08-31T17:33:06.130Z,101576.89
2018-08-31T17:35:40.966Z,101569.91
2018-08-31T17:38:10.798Z,101576.59
2018-08-31T17:40:46.505Z,101576.23
2018-08-31T17:43:16.354Z,101574.03
2018-08-31T17:48:21.460Z,101582.87
2018-08-31T17:50:51.886Z,101583.76
2018-08-31T17:53:21.642Z,101589.43
2018-08-31T17:55:51.488Z,101589.86
2018-08-31T17:58:21.324Z,101590.27
2018-08-31T18:00:51.045Z,101593.72
2018-08-31T18:03:20.755Z,101596.33
2018-08-31T18:05:50.577Z,101597.62
2018-08-31T18:08:20.366Z,101604.52
2018-08-31T18:10:50.493Z,101602.70
2018-08-31T18:13:20.252Z,101607.48
2018-08-31T18:15:50.250Z,101612.17
2018-08-31T18:18:20.086Z,101612.94
2018-08-31T18:20:49.812Z,101615.89
2018-08-31T18:23:19.595Z,101614.09
2018-08-31T18:25:49.372Z,101609.23
2018-08-31T18:28:19.153Z,101610.89
2018-08-31T18:30:48.854Z,101617.88
2018-08-31T18:33:18.553Z,101620.30
2018-08-31T18:35:48.415Z,101619.72
2018-08-31T18:38:18.090Z,101622.66
2018-08-31T18:40:47.925Z,101620.80
2018-08-31T18:43:17.713Z,101627.18
2018-08-31T18:45:47.622Z,101628.80
2018-08-31T18:48:17.539Z,101634.33
2018-08-31T18:50:47.358Z,101635.94
2018-08-31T18:53:17.139Z,101638.88
2018-08-31T18:55:46.934Z,101636.60
2018-08-31T18:58:16.698Z,101643.48
2018-08-31T19:00:46.485Z,101645.18
2018-08-31T19:03:16.258Z,101656.35
2018-08-31T19:05:46.361Z,101652.75
2018-08-31T19:08:16.152Z,101657.00
2018-08-31T19:10:45.826Z,101655.58
2018-08-31T19:13:15.695Z,101662.38
2018-08-31T19:15:45.444Z,101667.05
2018-08-31T19:18:15.287Z,101666.42
2018-08-31T19:20:44.985Z,101672.02
2018-08-31T19:23:14.844Z,101677.25
2018-08-31T19:25:44.571Z,101672.88
2018-08-31T19:28:14.338Z,101674.42
2018-08-31T19:30:44.121Z,101678.22
2018-08-31T19:33:14.041Z,101678.56
2018-08-31T19:35:44.029Z,101683.22
2018-08-31T19:38:13.935Z,101682.22
2018-08-31T19:40:44.010Z,101685.52
2018-08-31T19:43:13.890Z,101692.31
2018-08-31T19:45:43.796Z,101694.03
2018-08-31T19:48:13.625Z,101697.60
2018-08-31T19:50:44.135Z,101691.88
2018-08-31T19:53:13.916Z,101694.64
2018-08-31T19:55:43.652Z,101692.03
2018-08-31T19:58:13.462Z,101690.56
2018-08-31T20:00:43.280Z,101694.72
2018-08-31T20:03:13.057Z,101698.00
2018-08-31T20:05:42.819Z,101701.30
2018-08-31T20:08:12.554Z,101702.81
2018-08-31T20:10:42.395Z,101703.49
2018-08-31T20:13:12.308Z,101702.55
2018-08-31T20:15:42.226Z,101704.14
2018-08-31T20:18:12.019Z,101712.31
2018-08-31T20:20:41.881Z,101709.19
2018-08-31T20:23:11.716Z,101713.73
2018-08-31T20:25:41.437Z,101716.59
2018-08-31T20:28:11.230Z,101717.23
2018-08-31T20:30:40.934Z,101714.50
2018-08-31T20:33:10.705Z,101719.27
2018-08-31T20:35:40.569Z,101719.70
2018-08-31T20:38:10.310Z,101718.94
2018-08-31T20:40:40.048Z,101723.02
2018-08-31T20:43:10.114Z,101728.25
2018-08-31T20:45:40.081Z,101731.28
2018-08-31T20:48:09.841Z,101734.77
2018-08-31T20:50:39.853Z,101733.73
2018-08-31T20:53:09.629Z,101732.33
2018-08-31T20:55:39.532Z,101735.52
2018-08-31T20:58:09.400Z,101749.03
2018-08-31T21:00:39.156Z,101747.39
2018-08-31T21:03:09.486Z,101744.48
2018-08-31T21:05:39.263Z,101748.58
2018-08-31T21:08:09.030Z,101741.59
2018-08-31T21:10:39.131Z,101746.46
2018-08-31T21:13:09.321Z,101746.22
2018-08-31T21:15:39.199Z,101740.34
2018-08-31T21:18:08.890Z,101744.25
2018-08-31T21:20:38.824Z,101746.80
2018-08-31T21:23:08.888Z,101747.23
2018-08-31T21:25:38.562Z,101745.84
2018-08-31T21:28:08.486Z,101742.42
2018-08-31T21:30:38.227Z,101748.30
2018-08-31T21:33:08.557Z,101746.86
2018-08-31T21:35:38.333Z,101750.23
2018-08-31T21:38:08.067Z,101750.16
2018-08-31T21:40:37.798Z,101752.62
2018-08-31T21:43:07.669Z,101753.87
2018-08-31T21:45:37.425Z,101755.34
2018-08-31T21:48:07.889Z,101755.93
2018-08-31T21:50:37.649Z,101754.84
2018-08-31T21:53:07.434Z,101757.73
2018-08-31T21:55:37.233Z,101761.21
2018-08-31T21:58:07.122Z,101762.00
2018-08-31T22:00:43.090Z,101759.64
2018-08-31T22:03:13.824Z,101758.22
2018-08-31T22:05:47.208Z,101766.72
2018-08-31T22:08:19.058Z,101765.70
2018-08-31T22:10:48.908Z,101766.06
2018-08-31T22:13:18.822Z,101764.66
2018-08-31T22:15:48.750Z,101761.52
2018-08-31T22:18:18.753Z,101763.06
2018-08-31T22:20:48.611Z,101761.70
2018-08-31T22:23:18.646Z,101758.98
2018-08-31T22:25:48.440Z,101760.80
2018-08-31T22:28:18.194Z,101765.60
2018-08-31T22:30:47.968Z,101768.44
2018-08-31T22:33:17.770Z,101775.27
2018-08-31T22:35:47.475Z,101770.63
2018-08-31T22:38:17.212Z,101770.84
2018-08-31T22:40:47.103Z,101771.58
2018-08-31T22:43:16.868Z,101776.03
2018-08-31T22:45:46.577Z,101774.54
2018-08-31T22:48:16.382Z,101772.14
2018-08-31T22:50:46.167Z,101777.30
2018-08-31T22:53:15.890Z,101770.18
2018-08-31T22:55:45.601Z,101768.20
2018-08-31T22:58:15.548Z,101764.72
2018-08-31T23:00:45.259Z,101769.27
2018-08-31T23:03:15.043Z,101769.37
2018-08-31T23:05:44.753Z,101764.40
2018-08-31T23:08:14.553Z,101768.08
2018-08-31T23:10:44.289Z,101765.02
2018-08-31T23:13:14.094Z,101761.58
2018-08-31T23:15:43.744Z,101765.80
2018-08-31T23:18:13.459Z,101764.05
2018-08-31T23:20:43.401Z,101769.52
2018-08-31T23:23:18.280Z,101769.67
2018-08-31T23:25:51.240Z,101773.39
2018-08-31T23:28:22.206Z,101769.28
2018-08-31T23:30:51.929Z,101773.06
2018-08-31T23:33:21.721Z,101769.95
2018-08-31T23:35:51.480Z,101777.59
2018-08-31T23:38:21.243Z,101772.47
2018-08-31T23:40:51.110Z,101773.28
2018-08-31T23:43:20.889Z,101776.34
2018-08-31T23:45:51.628Z,101772.65
2018-08-31T23:48:21.510Z,101771.73
2018-08-31T23:50:51.365Z,101769.31
2018-08-31T23:53:21.072Z,101773.83
2018-08-31T23:55:50.875Z,101772.42
2018-08-31T23:58:20.584Z,101777.39
